Phelps, Texas
Current Conditions -  °F | °C
As of 6:53 PM on Friday 19 Dec 2014 (Local Time) from KUTS Reporting Station
Light Rain Light Rain  
Wind Chill: 51°   Ceiling: 500
Heat Index: 51°   Visibility: 3mi
Dew Point: 50°   Wind: 7mph
Humidity: 96%   Direction: 360°N
Pressure: 30.12"   Gusts: NA
Location:  30.7067°N, 95.5483°W
Report Text: KUTS 200053Z AUTO 36006KT 3SM -RA BR BKN005 OVC008 11/10 A3012 RMK AO2 RAB03 SLP200 P0000 T01060100
Loading
Personal Weather Stations






























Interactive Weather Map New forecast layout! Learn more

10-Day Weather Forecast

Advertisements
Track Severe Weather on mobile